createdAt,value
2019-05-16T00:00:19.219Z,98344.64
2019-05-16T00:02:50.662Z,98338.13
2019-05-16T00:05:22.495Z,98342.94
2019-05-16T00:07:54.054Z,98335.66
2019-05-16T00:10:27.916Z,98323.52
2019-05-16T00:12:59.752Z,98320.88
2019-05-16T00:15:31.587Z,98321.61
2019-05-16T00:18:03.238Z,98314.07
2019-05-16T00:20:34.799Z,98314.77
2019-05-16T00:23:07.951Z,98312.64
2019-05-16T00:25:39.629Z,98300.45
2019-05-16T00:28:11.191Z,98305.83
2019-05-16T00:30:42.880Z,98305.95
2019-05-16T00:33:15.514Z,98299.14
2019-05-16T00:35:48.175Z,98298.84
2019-05-16T00:38:20.417Z,98296.11
2019-05-16T00:40:51.979Z,98290.25
2019-05-16T00:43:23.525Z,98288.48
2019-05-16T00:45:55.137Z,98281.98
2019-05-16T00:48:28.677Z,98283.29
2019-05-16T00:50:59.936Z,98280.94
2019-05-16T00:53:31.529Z,98283.19
2019-05-16T00:56:03.142Z,98280.02
2019-05-16T00:58:38.028Z,98277.36
2019-05-16T01:01:09.653Z,98280.70
2019-05-16T01:03:41.247Z,98281.25
2019-05-16T01:06:18.746Z,98274.45
2019-05-16T01:08:48.572Z,98272.55
2019-05-16T01:11:19.445Z,98271.03
2019-05-16T01:13:51.097Z,98272.19
2019-05-16T01:16:22.646Z,98267.41
2019-05-16T01:18:54.232Z,98274.30
2019-05-16T01:21:25.794Z,98273.61
2019-05-16T01:23:58.616Z,98266.38
2019-05-16T01:26:30.270Z,98268.75
2019-05-16T01:29:01.851Z,98270.60
2019-05-16T01:31:33.371Z,98270.52
2019-05-16T01:34:04.962Z,98268.84
2019-05-16T01:36:38.000Z,98263.65
2019-05-16T01:39:09.869Z,98265.02
2019-05-16T01:41:41.484Z,98263.81
2019-05-16T01:44:13.048Z,98262.31
2019-05-16T01:46:44.601Z,98255.83
2019-05-16T01:49:16.157Z,98254.27
2019-05-16T01:51:48.426Z,98254.61
2019-05-16T01:54:20.060Z,98251.59
2019-05-16T01:56:51.633Z,98251.28
2019-05-16T01:59:23.179Z,98249.70
2019-05-16T02:01:54.728Z,98246.80
2019-05-16T02:04:28.617Z,98244.43
2019-05-16T02:06:59.566Z,98241.72
2019-05-16T02:09:31.114Z,98240.58
2019-05-16T02:12:02.675Z,98238.06
2019-05-16T02:14:34.219Z,98231.97
2019-05-16T02:17:05.874Z,98230.20
2019-05-16T02:19:38.523Z,98231.90
2019-05-16T02:22:10.194Z,98232.48
2019-05-16T02:24:41.748Z,98234.09
2019-05-16T02:27:13.343Z,98232.18
2019-05-16T02:29:44.874Z,98231.48
2019-05-16T02:32:16.430Z,98230.58
2019-05-16T02:34:47.999Z,98230.34
2019-05-16T02:37:29.297Z,98226.09
2019-05-16T02:39:54.501Z,98226.86
2019-05-16T02:42:26.322Z,98225.33
2019-05-16T02:44:57.896Z,98215.98
2019-05-16T02:47:30.951Z,98218.49
2019-05-16T02:50:02.766Z,98212.09
2019-05-16T02:52:34.311Z,98217.95
2019-05-16T02:55:06.083Z,98222.98
2019-05-16T02:57:41.113Z,98211.71
2019-05-16T03:00:12.669Z,98205.98
2019-05-16T03:02:44.407Z,98209.87
2019-05-16T03:05:17.025Z,98206.66
2019-05-16T03:07:51.845Z,98200.46
2019-05-16T03:10:22.203Z,98199.95
2019-05-16T03:12:55.685Z,98200.49
2019-05-16T03:15:30.704Z,98198.52
2019-05-16T03:18:04.302Z,98197.45
2019-05-16T03:20:35.891Z,98193.05
2019-05-16T03:23:07.445Z,98195.17
2019-05-16T03:25:41.796Z,98194.64
2019-05-16T03:28:12.264Z,98182.59
2019-05-16T03:30:45.279Z,98191.19
2019-05-16T03:33:26.185Z,98187.38
2019-05-16T03:35:54.720Z,98182.83
2019-05-16T03:38:23.624Z,98181.69
2019-05-16T03:40:55.192Z,98184.74
2019-05-16T03:43:26.714Z,98179.25
2019-05-16T03:46:02.138Z,98185.13
2019-05-16T03:48:32.642Z,98180.46
2019-05-16T03:51:04.221Z,98181.32
2019-05-16T03:53:35.767Z,98178.94
2019-05-16T03:56:07.356Z,98178.70
2019-05-16T03:58:41.598Z,98177.09
2019-05-16T04:01:12.178Z,98177.65
2019-05-16T04:03:43.695Z,98173.96
2019-05-16T04:06:15.264Z,98168.55
2019-05-16T04:08:46.801Z,98167.84
2019-05-16T04:11:22.785Z,98168.98
2019-05-16T04:13:52.740Z,98165.87
2019-05-16T04:16:24.295Z,98162.95
2019-05-16T04:18:55.874Z,98156.52
2019-05-16T04:21:27.452Z,98157.91
2019-05-16T04:24:01.242Z,98158.44
2019-05-16T04:26:35.760Z,98161.23
2019-05-16T04:29:05.566Z,98155.52
2019-05-16T04:31:37.153Z,98153.20
2019-05-16T04:34:11.496Z,98152.12
2019-05-16T04:36:41.993Z,98152.52
2019-05-16T04:39:13.568Z,98151.57
2019-05-16T04:41:45.105Z,98151.49
2019-05-16T04:44:16.798Z,98147.69
2019-05-16T04:46:51.058Z,98144.56
2019-05-16T04:49:21.621Z,98145.62
2019-05-16T04:51:54.254Z,98152.52
2019-05-16T04:54:25.838Z,98152.09
2019-05-16T04:57:01.231Z,98155.09
2019-05-16T04:59:31.354Z,98153.45
2019-05-16T05:02:03.101Z,98151.26
2019-05-16T05:04:34.660Z,98147.23
2019-05-16T05:07:06.230Z,98151.70
2019-05-16T05:09:40.627Z,98148.58
2019-05-16T05:12:11.601Z,98153.43
2019-05-16T05:14:43.388Z,98156.41
2019-05-16T05:17:14.969Z,98153.23
2019-05-16T05:19:46.550Z,98151.88
2019-05-16T05:22:19.907Z,98153.56
2019-05-16T05:24:51.390Z,98143.75
2019-05-16T05:27:22.976Z,98146.19
2019-05-16T05:29:55.485Z,98140.80
2019-05-16T05:32:27.111Z,98140.98
2019-05-16T05:34:59.833Z,98139.70
2019-05-16T05:37:31.702Z,98146.28
2019-05-16T05:40:03.382Z,98151.18
2019-05-16T05:42:35.010Z,98142.91
2019-05-16T05:45:06.946Z,98144.02
2019-05-16T05:47:40.270Z,98142.05
2019-05-16T05:50:12.354Z,98139.12
2019-05-16T05:52:46.155Z,98136.78
2019-05-16T05:55:19.803Z,98137.50
2019-05-16T05:57:50.850Z,98132.16
2019-05-16T06:00:22.524Z,98136.47
2019-05-16T06:02:54.137Z,98137.59
2019-05-16T06:05:25.868Z,98132.41
2019-05-16T06:08:00.156Z,98132.80
2019-05-16T06:10:31.046Z,98136.61
2019-05-16T06:13:03.759Z,98133.63
2019-05-16T06:15:35.416Z,98131.61
2019-05-16T06:18:06.997Z,98133.45
2019-05-16T06:20:40.113Z,98133.95
2019-05-16T06:23:11.695Z,98131.86
2019-05-16T06:25:43.288Z,98128.30
2019-05-16T06:28:14.842Z,98125.44
2019-05-16T06:30:46.420Z,98126.59
2019-05-16T06:33:19.932Z,98115.30
2019-05-16T06:35:51.669Z,98115.02
2019-05-16T06:38:23.368Z,98117.34
2019-05-16T06:40:54.950Z,98115.74
2019-05-16T06:43:26.513Z,98116.15
2019-05-16T06:46:00.351Z,98112.48
2019-05-16T06:48:31.353Z,98106.80
2019-05-16T06:51:03.308Z,98109.21
2019-05-16T06:53:35.021Z,98103.66
2019-05-16T06:56:06.594Z,98105.58
2019-05-16T06:58:45.632Z,98102.13
2019-05-16T07:01:11.460Z,98098.67
2019-05-16T07:03:43.021Z,98096.31
2019-05-16T07:06:37.850Z,98090.13
2019-05-16T07:08:50.525Z,98086.73
2019-05-16T07:11:21.175Z,98089.47
2019-05-16T07:13:52.730Z,98088.14
2019-05-16T07:16:24.322Z,98090.28
2019-05-16T07:18:55.918Z,98090.88
2019-05-16T07:21:27.512Z,98089.34
2019-05-16T07:24:00.174Z,98085.02
2019-05-16T07:26:31.820Z,98089.38
2019-05-16T07:29:03.711Z,98090.64
2019-05-16T07:31:35.548Z,98085.27
2019-05-16T07:34:10.411Z,98086.78
2019-05-16T07:36:41.446Z,98092.35
2019-05-16T07:39:13.039Z,98084.61
2019-05-16T07:41:44.602Z,98084.41
2019-05-16T07:44:17.160Z,98085.09
2019-05-16T07:46:51.255Z,98082.91
2019-05-16T07:49:22.054Z,98081.34
2019-05-16T07:51:53.633Z,98083.84
2019-05-16T07:54:25.285Z,98079.84
2019-05-16T07:57:02.235Z,98080.11
2019-05-16T07:59:30.199Z,98075.03
2019-05-16T08:02:21.196Z,98077.73
2019-05-16T08:04:52.924Z,98075.49
2019-05-16T08:07:24.481Z,98075.13
2019-05-16T08:09:56.056Z,98074.19
2019-05-16T08:12:27.674Z,98067.98
2019-05-16T08:15:00.719Z,98064.83
2019-05-16T08:17:32.697Z,98068.39
2019-05-16T08:20:04.352Z,98069.25
2019-05-16T08:22:35.920Z,98057.33
2019-05-16T08:25:10.486Z,98060.41
2019-05-16T08:27:42.612Z,98060.88
2019-05-16T08:30:14.809Z,98055.84
2019-05-16T08:32:46.416Z,98053.34
2019-05-16T08:35:20.509Z,98050.21
2019-05-16T08:37:51.680Z,98048.04
2019-05-16T08:40:23.539Z,98047.28
2019-05-16T08:42:55.126Z,98040.72
2019-05-16T08:45:26.713Z,98034.16
2019-05-16T08:48:00.228Z,98031.66
2019-05-16T08:50:34.951Z,98026.27
2019-05-16T08:53:04.859Z,98027.05
2019-05-16T08:55:36.429Z,98025.38
2019-05-16T08:58:13.211Z,98022.08
2019-05-16T09:00:42.055Z,98021.85
2019-05-16T09:03:13.751Z,98010.34
2019-05-16T09:05:45.323Z,98006.91
2019-05-16T09:08:16.894Z,98005.34
2019-05-16T09:10:59.721Z,98004.97
2019-05-16T09:13:21.733Z,98008.30
2019-05-16T09:15:53.304Z,98005.02
2019-05-16T09:18:28.229Z,98011.80
2019-05-16T09:20:58.262Z,97996.05
2019-05-16T09:23:29.820Z,97991.10
2019-05-16T09:26:01.379Z,97995.34
2019-05-16T09:28:33.051Z,97993.69
2019-05-16T09:31:07.142Z,97989.69
2019-05-16T09:33:37.936Z,97986.71
2019-05-16T09:36:09.509Z,97983.94
2019-05-16T09:38:41.071Z,97980.21
2019-05-16T09:41:12.632Z,97986.09
2019-05-16T09:43:44.203Z,97979.20
2019-05-16T09:46:17.192Z,97978.20
2019-05-16T09:48:49.327Z,97977.26
2019-05-16T09:51:21.494Z,97973.87
2019-05-16T09:53:53.131Z,97967.20
2019-05-16T09:56:26.854Z,97966.03
2019-05-16T09:58:57.950Z,97963.83
2019-05-16T10:01:29.527Z,97960.63
2019-05-16T10:04:01.098Z,97957.33
2019-05-16T10:06:32.686Z,97954.92
2019-05-16T10:09:06.417Z,97944.98
2019-05-16T10:11:41.762Z,97939.31
2019-05-16T10:14:11.510Z,97938.92
2019-05-16T10:16:43.403Z,97931.70
2019-05-16T10:19:16.916Z,97926.39
2019-05-16T10:21:48.241Z,97930.75
2019-05-16T10:24:19.831Z,97929.98
2019-05-16T10:26:53.956Z,97921.45
2019-05-16T10:29:27.139Z,97928.45
2019-05-16T10:31:57.953Z,97923.17
2019-05-16T10:34:29.631Z,97919.52
2019-05-16T10:37:01.515Z,97913.87
2019-05-16T10:39:33.093Z,97909.75
2019-05-16T10:42:06.682Z,97910.47
2019-05-16T10:44:38.842Z,97908.22
2019-05-16T10:47:10.579Z,97904.20
2019-05-16T10:49:42.177Z,97904.52
2019-05-16T10:52:16.453Z,97904.73
2019-05-16T10:54:57.560Z,97907.02
2019-05-16T10:57:20.420Z,97900.20
2019-05-16T11:00:05.195Z,97901.02
2019-05-16T11:02:27.575Z,97899.89
2019-05-16T11:05:08.463Z,97897.44
2019-05-16T11:07:32.158Z,97885.17
2019-05-16T11:10:06.748Z,97889.83
2019-05-16T11:12:47.550Z,97885.45
2019-05-16T11:15:11.998Z,97881.22
2019-05-16T11:17:43.602Z,97888.91
2019-05-16T11:20:19.670Z,97883.28
2019-05-16T11:22:50.087Z,97885.23
2019-05-16T11:25:28.786Z,97882.47
2019-05-16T11:27:57.433Z,97876.66
2019-05-16T11:30:28.776Z,97871.66
2019-05-16T11:33:00.373Z,97861.15
2019-05-16T11:35:33.058Z,97870.23
2019-05-16T11:38:07.129Z,97868.85
2019-05-16T11:40:38.989Z,97872.19
2019-05-16T11:43:17.736Z,97874.75
2019-05-16T11:45:43.845Z,97874.45
2019-05-16T11:48:17.061Z,97870.31
2019-05-16T11:50:48.906Z,97868.97
2019-05-16T11:53:20.495Z,97852.23
2019-05-16T11:55:57.682Z,97856.89
2019-05-16T11:58:26.651Z,97861.05
2019-05-16T12:00:58.389Z,97850.84
2019-05-16T12:03:29.992Z,97851.80
2019-05-16T12:06:01.573Z,97848.69
2019-05-16T12:08:33.198Z,97841.72
2019-05-16T12:11:06.863Z,97842.22
2019-05-16T12:13:38.093Z,97834.63
2019-05-16T12:16:09.680Z,97847.20
2019-05-16T12:18:41.272Z,97841.89
2019-05-16T12:21:12.858Z,97830.81
2019-05-16T12:23:47.124Z,97833.28
2019-05-16T12:26:18.024Z,97831.98
2019-05-16T12:28:49.594Z,97824.19
2019-05-16T12:31:21.151Z,97812.14
2019-05-16T12:33:52.770Z,97822.05
2019-05-16T12:36:26.624Z,97814.25
2019-05-16T12:38:57.658Z,97820.20
2019-05-16T12:41:29.203Z,97817.70
2019-05-16T12:44:01.070Z,97819.37
2019-05-16T12:46:32.684Z,97815.70
2019-05-16T12:49:06.860Z,97810.91
2019-05-16T12:51:37.556Z,97811.25
2019-05-16T12:54:09.152Z,97808.46
2019-05-16T12:56:41.789Z,97803.67
2019-05-16T12:59:20.548Z,97801.50
2019-05-16T13:01:48.134Z,97800.34
2019-05-16T13:04:21.025Z,97797.36
2019-05-16T13:06:52.582Z,97795.22
2019-05-16T13:09:26.386Z,97797.86
2019-05-16T13:11:57.810Z,97786.31
2019-05-16T13:14:29.506Z,97781.02
2019-05-16T13:17:01.068Z,97778.99
2019-05-16T13:19:34.291Z,97773.36
2019-05-16T13:22:07.331Z,97766.10
2019-05-16T13:24:40.108Z,97766.41
2019-05-16T13:27:11.991Z,97766.41
2019-05-16T13:29:43.607Z,97756.66
2019-05-16T13:32:17.238Z,97748.72
2019-05-16T13:34:48.445Z,97749.41
2019-05-16T13:37:20.026Z,97743.13
2019-05-16T13:39:51.688Z,97747.06
2019-05-16T13:42:23.273Z,97743.26
2019-05-16T13:44:54.842Z,97743.77
2019-05-16T13:47:26.909Z,97739.15
2019-05-16T13:49:58.511Z,97731.03
2019-05-16T13:52:30.091Z,97728.08
2019-05-16T13:55:01.649Z,97730.73
2019-05-16T13:57:33.236Z,97723.16
2019-05-16T14:00:07.546Z,97722.02
2019-05-16T14:02:39.578Z,97721.52
2019-05-16T14:05:13.325Z,97712.75
2019-05-16T14:07:47.493Z,97716.56
2019-05-16T14:10:18.687Z,97715.11
2019-05-16T14:12:50.499Z,97720.39
2019-05-16T14:15:22.279Z,97715.25
2019-05-16T14:17:56.667Z,97712.30
2019-05-16T14:20:27.280Z,97706.35
2019-05-16T14:23:01.615Z,97703.06
2019-05-16T14:25:32.164Z,97696.91
2019-05-16T14:28:07.421Z,97699.72
2019-05-16T14:30:38.302Z,97697.08
2019-05-16T14:33:13.841Z,97697.08
2019-05-16T14:35:43.256Z,97691.46
2019-05-16T14:38:17.345Z,97695.90
2019-05-16T14:40:50.278Z,97690.30
2019-05-16T14:43:21.440Z,97687.14
2019-05-16T14:45:53.074Z,97692.59
2019-05-16T14:48:27.576Z,97685.84
2019-05-16T14:50:58.046Z,97685.02
2019-05-16T14:53:29.704Z,97676.43
2019-05-16T14:56:01.302Z,97676.41
2019-05-16T14:58:32.919Z,97675.63
2019-05-16T15:01:07.165Z,97675.13
2019-05-16T15:03:39.070Z,97671.14
2019-05-16T15:06:10.642Z,97676.26
2019-05-16T15:08:42.275Z,97668.97
2019-05-16T15:11:14.686Z,97673.45
2019-05-16T15:13:47.168Z,97668.47
2019-05-16T15:16:18.738Z,97667.63
2019-05-16T15:18:50.346Z,97671.83
2019-05-16T15:21:21.966Z,97671.47
2019-05-16T15:23:53.574Z,97673.12
2019-05-16T15:26:26.744Z,97672.66
2019-05-16T15:28:59.606Z,97669.03
2019-05-16T15:31:31.169Z,97666.69
2019-05-16T15:34:02.774Z,97667.17
2019-05-16T15:36:37.231Z,97667.84
2019-05-16T15:39:10.044Z,97666.99
2019-05-16T15:41:41.647Z,97661.51
2019-05-16T15:44:13.274Z,97658.89
2019-05-16T15:46:44.873Z,97657.91
2019-05-16T15:49:17.229Z,97654.59
2019-05-16T15:51:49.925Z,97656.41
2019-05-16T15:54:28.281Z,97652.94
2019-05-16T15:56:57.854Z,97655.23
2019-05-16T15:59:29.536Z,97654.59
2019-05-16T16:02:01.082Z,97654.59
2019-05-16T16:04:32.712Z,97649.31
2019-05-16T16:07:07.396Z,97651.43
2019-05-16T16:09:38.075Z,97651.59
2019-05-16T16:12:10.807Z,97649.38
2019-05-16T16:14:42.930Z,97641.13
2019-05-16T16:17:14.516Z,97639.80
2019-05-16T16:19:46.968Z,97641.91
2019-05-16T16:22:18.702Z,97633.30
2019-05-16T16:24:50.313Z,97635.66
2019-05-16T16:27:21.903Z,97632.99
2019-05-16T16:29:53.507Z,97631.98
2019-05-16T16:32:26.850Z,97629.89
2019-05-16T16:34:58.700Z,97631.20
2019-05-16T16:37:30.294Z,97626.09
2019-05-16T16:40:01.926Z,97625.09
2019-05-16T16:42:37.329Z,97622.61
2019-05-16T16:45:09.029Z,97620.59
2019-05-16T16:47:40.665Z,97618.43
2019-05-16T16:50:12.680Z,97610.58
2019-05-16T16:52:44.373Z,97626.15
2019-05-16T16:55:16.976Z,97617.61
2019-05-16T16:57:48.703Z,97621.06
2019-05-16T17:00:20.821Z,97616.08
2019-05-16T17:03:03.281Z,97614.95
2019-05-16T17:05:26.522Z,97616.52
2019-05-16T17:07:58.390Z,97615.19
2019-05-16T17:10:30.057Z,97615.19
2019-05-16T17:13:01.684Z,97614.38
2019-05-16T17:15:33.320Z,97612.55
2019-05-16T17:18:07.033Z,97613.18
2019-05-16T17:20:38.396Z,97615.97
2019-05-16T17:23:10.117Z,97614.81
2019-05-16T17:25:41.714Z,97612.02
2019-05-16T17:28:13.334Z,97616.28
2019-05-16T17:30:47.030Z,97613.34
2019-05-16T17:33:19.037Z,97610.70
2019-05-16T17:35:50.641Z,97614.11
2019-05-16T17:38:22.353Z,97607.80
2019-05-16T17:40:53.949Z,97605.82
2019-05-16T17:43:27.078Z,97612.56
2019-05-16T17:45:58.913Z,97612.52
2019-05-16T17:48:30.627Z,97615.42
2019-05-16T17:51:02.371Z,97611.12
2019-05-16T17:53:33.968Z,97608.28
2019-05-16T17:56:06.927Z,97609.59
2019-05-16T17:58:38.858Z,97607.94
2019-05-16T18:01:11.526Z,97610.41
2019-05-16T18:03:43.185Z,97621.10
2019-05-16T18:06:16.959Z,97617.34
2019-05-16T18:08:48.476Z,97616.73
2019-05-16T18:11:20.115Z,97617.55
2019-05-16T18:13:51.738Z,97615.57
2019-05-16T18:16:23.348Z,97615.87
2019-05-16T18:18:57.343Z,97611.88
2019-05-16T18:21:28.329Z,97603.47
2019-05-16T18:23:59.938Z,97601.70
2019-05-16T18:26:31.566Z,97605.39
2019-05-16T18:29:03.198Z,97606.05
2019-05-16T18:31:37.154Z,97605.73
2019-05-16T18:34:08.084Z,97611.77
2019-05-16T18:36:39.847Z,97603.37
2019-05-16T18:39:11.533Z,97603.23
2019-05-16T18:41:43.309Z,97598.83
2019-05-16T18:44:16.726Z,97595.78
2019-05-16T18:46:48.458Z,97601.33
2019-05-16T18:49:23.914Z,97590.84
2019-05-16T18:51:54.425Z,97592.06
2019-05-16T18:54:26.705Z,97597.70
2019-05-16T18:56:58.420Z,97595.80
2019-05-16T18:59:30.030Z,97597.68
2019-05-16T19:02:01.620Z,97592.27
2019-05-16T19:04:33.321Z,97585.66
2019-05-16T19:07:07.643Z,97588.02
2019-05-16T19:09:38.194Z,97591.52
2019-05-16T19:12:09.812Z,97588.50
2019-05-16T19:14:41.403Z,97590.66
2019-05-16T19:17:22.232Z,97588.45
2019-05-16T19:19:46.437Z,97592.20
2019-05-16T19:22:18.094Z,97593.45
2019-05-16T19:24:49.974Z,97591.73
2019-05-16T19:27:21.741Z,97597.54
2019-05-16T19:29:53.382Z,97592.91
2019-05-16T19:32:25.021Z,97596.89
2019-05-16T19:34:58.386Z,97592.87
2019-05-16T19:37:31.227Z,97602.59
2019-05-16T19:40:03.024Z,97604.58
2019-05-16T19:42:36.769Z,97606.02
2019-05-16T19:45:08.070Z,97603.83
2019-05-16T19:47:41.246Z,97607.34
2019-05-16T19:50:15.004Z,97598.14
2019-05-16T19:52:47.213Z,97596.78
2019-05-16T19:55:19.013Z,97598.84
2019-05-16T19:57:50.588Z,97593.61
2019-05-16T20:00:22.614Z,97591.84
2019-05-16T20:02:56.963Z,97596.33
2019-05-16T20:05:29.752Z,97589.64
2019-05-16T20:08:01.375Z,97591.39
2019-05-16T20:10:32.982Z,97593.29
2019-05-16T20:13:04.570Z,97589.75
2019-05-16T20:15:36.760Z,97594.78
2019-05-16T20:18:08.454Z,97593.55
2019-05-16T20:20:40.157Z,97597.01
2019-05-16T20:23:12.836Z,97590.17
2019-05-16T20:25:46.877Z,97591.60
2019-05-16T20:28:18.595Z,97597.39
2019-05-16T20:30:51.988Z,97601.63
2019-05-16T20:33:23.592Z,97602.45
2019-05-16T20:35:57.477Z,97602.55
2019-05-16T20:38:29.016Z,97609.27
2019-05-16T20:41:00.630Z,97604.39
2019-05-16T20:43:32.258Z,97602.08
2019-05-16T20:46:03.881Z,97599.46
2019-05-16T20:48:36.908Z,97595.08
2019-05-16T20:51:10.014Z,97600.87
2019-05-16T20:53:41.608Z,97599.30
2019-05-16T20:56:13.244Z,97602.87
2019-05-16T20:58:46.670Z,97604.05
2019-05-16T21:01:18.328Z,97600.73
2019-05-16T21:03:50.022Z,97600.25
2019-05-16T21:06:21.657Z,97601.08
2019-05-16T21:08:53.329Z,97601.43
2019-05-16T21:11:26.434Z,97592.40
2019-05-16T21:13:58.094Z,97593.41
2019-05-16T21:16:29.709Z,97590.30
2019-05-16T21:19:01.325Z,97589.97
2019-05-16T21:21:32.902Z,97588.92
2019-05-16T21:24:06.616Z,97584.34
2019-05-16T21:26:37.803Z,97583.16
2019-05-16T21:29:11.055Z,97581.62
2019-05-16T21:31:42.638Z,97580.31
2019-05-16T21:34:16.155Z,97573.90
2019-05-16T21:36:48.664Z,97573.21
2019-05-16T21:39:20.289Z,97571.93
2019-05-16T21:41:51.910Z,97561.52
2019-05-16T21:44:23.524Z,97562.11
2019-05-16T21:46:56.440Z,97559.31
2019-05-16T21:49:28.224Z,97556.34
2019-05-16T21:52:00.957Z,97556.34
2019-05-16T21:54:32.570Z,97554.96
2019-05-16T21:57:04.199Z,97551.30
2019-05-16T21:59:37.548Z,97557.36
2019-05-16T22:02:09.482Z,97557.59
2019-05-16T22:04:44.280Z,97550.39
2019-05-16T22:07:17.028Z,97540.80
2019-05-16T22:09:48.677Z,97540.70
2019-05-16T22:12:21.541Z,97532.42
2019-05-16T22:14:57.085Z,97533.16
2019-05-16T22:17:28.182Z,97530.20
2019-05-16T22:19:59.882Z,97532.86
2019-05-16T22:22:31.455Z,97528.52
2019-05-16T22:25:03.091Z,97523.42
2019-05-16T22:27:34.863Z,97523.22
2019-05-16T22:30:11.393Z,97523.93
2019-05-16T22:32:42.976Z,97513.28
2019-05-16T22:35:16.782Z,97512.23
2019-05-16T22:37:55.480Z,97507.50
2019-05-16T22:40:22.442Z,97501.91
2019-05-16T22:42:54.079Z,97499.19
2019-05-16T22:45:27.115Z,97500.70
2019-05-16T22:47:58.930Z,97501.06
2019-05-16T22:50:30.558Z,97506.66
2019-05-16T22:53:02.172Z,97498.34
2019-05-16T22:55:33.785Z,97487.94
2019-05-16T22:58:07.424Z,97491.13
2019-05-16T23:00:41.273Z,97488.52
2019-05-16T23:03:12.396Z,97478.44
2019-05-16T23:05:44.003Z,97481.21
2019-05-16T23:08:16.435Z,97474.00
2019-05-16T23:10:48.148Z,97476.94
2019-05-16T23:13:19.767Z,97479.42
2019-05-16T23:15:51.396Z,97470.41
2019-05-16T23:18:23.011Z,97466.50
2019-05-16T23:20:56.798Z,97467.47
2019-05-16T23:23:27.944Z,97466.30
2019-05-16T23:25:59.520Z,97462.37
2019-05-16T23:28:31.113Z,97466.99
2019-05-16T23:31:02.726Z,97458.58
2019-05-16T23:33:36.362Z,97461.31
2019-05-16T23:36:07.635Z,97460.09
2019-05-16T23:38:39.391Z,97452.27
2019-05-16T23:41:11.021Z,97457.97
2019-05-16T23:43:42.621Z,97453.20
2019-05-16T23:46:16.390Z,97453.81
2019-05-16T23:48:47.535Z,97448.59
2019-05-16T23:51:19.133Z,97445.49
2019-05-16T23:53:50.709Z,97439.94
2019-05-16T23:56:22.345Z,97438.16
2019-05-16T23:58:53.984Z,97435.41
